Pottersville, Missouri
Current Conditions -  °F | °C
As of 9:53 PM on Saturday 22 Nov 2014 (Local Time) from KUNO Reporting Station
Clear Clear  
Wind Chill: 11°   Ceiling: Unl
Heat Index: 11°   Visibility: 10mi
Dew Point:   Wind: 10mph
Humidity: 86%   Direction: 160°SSE
Pressure: 29.9"   Gusts: NA
Location:  36.7°N, 92.03°W
Report Text: KUNO 230353Z AUTO 16009KT 10SM CLR 11/08 A2990 RMK AO2 SLP124 T01060083
Loading
Personal Weather Stations






























Interactive Weather Map New forecast layout! Learn more

10-Day Weather Forecast

Advertisements
Track Severe Weather on mobile